Time;durP1;ratioP1;P1;durP2;ratioP2;P2;SDS_P1;SDS_P2;PMS_P1;PMS_P2;Temp;Humidity;BMP_temperature;BMP_pressure;BME280_temperature;BME280_humidity;BME280_pressure;Samples;Min_cycle;Max_cycle;Signal;HPM_P1;HPM_P2
2023/04/08 00:00:39;;;;;;;18.07;15.43;;;;;;;;;;4973515;28;20218;-68
2023/04/08 00:03:05;;;;;;;21.23;15.87;;;;;;;;;;4972663;28;20218;-68
2023/04/08 00:05:30;;;;;;;18.95;15.63;;;;;;;;;;4972511;28;20308;-68
2023/04/08 00:07:55;;;;;;;18.67;15.85;;;;;;;;;;4973147;28;20206;-68
2023/04/08 00:10:21;;;;;;;20.98;15.05;;;;;;;;;;4972503;28;20209;-68
2023/04/08 00:12:46;;;;;;;21.80;15.85;;;;;;;;;;4972174;28;20289;-68
2023/04/08 00:15:11;;;;;;;20.75;16.35;;;;;;;;;;4955285;28;20224;-68
2023/04/08 00:17:37;;;;;;;17.52;14.65;;;;;;;;;;4972734;28;20214;-69
2023/04/08 00:20:03;;;;;;;18.63;15.93;;;;;;;;;;4970920;28;20584;-68
2023/04/08 00:22:28;;;;;;;18.17;15.63;;;;;;;;;;4972073;28;20213;-68
2023/04/08 00:24:53;;;;;;;19.02;16.05;;;;;;;;;;4953484;28;20249;-68
2023/04/08 00:27:19;;;;;;;20.48;16.23;;;;;;;;;;4952379;28;20223;-68
2023/04/08 00:29:44;;;;;;;20.17;14.60;;;;;;;;;;4953185;28;20265;-68
2023/04/08 00:32:09;;;;;;;16.83;14.13;;;;;;;;;;4952781;29;20620;-68
2023/04/08 00:34:36;;;;;;;17.47;14.77;;;;;;;;;;4952444;29;20223;-68
2023/04/08 00:37:01;;;;;;;17.97;15.40;;;;;;;;;;4952861;29;20298;-67
2023/04/08 00:39:26;;;;;;;18.00;14.85;;;;;;;;;;4952919;29;20782;-68
2023/04/08 00:41:52;;;;;;;16.33;14.13;;;;;;;;;;4952489;29;20214;-68
2023/04/08 00:44:17;;;;;;;19.95;14.85;;;;;;;;;;4952498;29;20225;-68
2023/04/08 00:46:42;;;;;;;17.73;14.77;;;;;;;;;;4954145;28;20211;-68
2023/04/08 00:49:07;;;;;;;18.23;15.80;;;;;;;;;;4947265;29;20625;-67
2023/04/08 00:51:35;;;;;;;19.13;16.27;;;;;;;;;;4952810;29;20230;-68
2023/04/08 00:54:00;;;;;;;21.03;16.80;;;;;;;;;;4952622;29;20218;-63
2023/04/08 00:56:26;;;;;;;18.93;16.33;;;;;;;;;;4952363;29;20218;-68
2023/04/08 00:58:53;;;;;;;19.70;16.00;;;;;;;;;;4935810;29;20218;-68
2023/04/08 01:01:24;;;;;;;17.70;15.30;;;;;;;;;;4951548;29;20698;-68
2023/04/08 01:03:53;;;;;;;18.50;15.40;;;;;;;;;;4952930;29;20215;-68
2023/04/08 01:06:19;;;;;;;18.40;15.93;;;;;;;;;;4934962;29;20745;-68
2023/04/08 01:08:44;;;;;;;17.47;14.90;;;;;;;;;;4952114;29;20226;-68
2023/04/08 01:11:11;;;;;;;18.02;14.40;;;;;;;;;;4951878;29;20285;-68
2023/04/08 01:13:36;;;;;;;20.30;15.93;;;;;;;;;;4952690;29;20222;-68
2023/04/08 01:16:02;;;;;;;18.23;14.70;;;;;;;;;;4934396;29;20301;-67
2023/04/08 01:18:27;;;;;;;18.93;15.40;;;;;;;;;;4935647;29;20206;-68
2023/04/08 01:20:52;;;;;;;18.37;15.13;;;;;;;;;;4935303;29;20285;-68
2023/04/08 01:23:29;;;;;;;19.13;16.27;;;;;;;;;;4933893;29;20203;-68
2023/04/08 01:25:55;;;;;;;16.33;13.47;;;;;;;;;;4935171;29;20210;-68
2023/04/08 01:28:21;;;;;;;14.40;12.30;;;;;;;;;;4952067;29;20716;-68
2023/04/08 01:30:46;;;;;;;14.87;11.73;;;;;;;;;;4962256;28;20209;-68
2023/04/08 01:33:12;;;;;;;14.23;11.87;;;;;;;;;;4953797;28;20236;-68
2023/04/08 01:35:39;;;;;;;14.70;12.93;;;;;;;;;;4971583;28;20319;-68
2023/04/08 01:38:05;;;;;;;16.47;13.87;;;;;;;;;;4953223;28;20234;-68
2023/04/08 01:40:31;;;;;;;13.88;12.00;;;;;;;;;;4954127;28;20732;-69
2023/04/08 01:42:57;;;;;;;16.35;13.38;;;;;;;;;;4954347;28;20217;-69
2023/04/08 01:45:22;;;;;;;18.10;13.80;;;;;;;;;;4953005;28;20221;-68
2023/04/08 01:47:48;;;;;;;20.60;14.73;;;;;;;;;;4961916;28;20207;-69
2023/04/08 01:50:14;;;;;;;21.00;15.57;;;;;;;;;;4967071;28;20214;-68
2023/04/08 01:52:40;;;;;;;54.10;16.63;;;;;;;;;;4953499;28;20253;-68
2023/04/08 01:55:06;;;;;;;127.57;15.70;;;;;;;;;;4953489;28;20241;-68
2023/04/08 01:57:31;;;;;;;32.67;12.83;;;;;;;;;;4970808;28;20305;-68
2023/04/08 01:59:58;;;;;;;80.60;13.37;;;;;;;;;;4954165;28;20245;-69
2023/04/08 02:02:24;;;;;;;62.57;12.93;;;;;;;;;;4953571;28;20217;-68
2023/04/08 02:04:49;;;;;;;127.10;14.35;;;;;;;;;;4970696;28;20268;-69
2023/04/08 02:07:15;;;;;;;21.17;10.77;;;;;;;;;;4970641;28;20293;-69
2023/04/08 02:09:41;;;;;;;82.05;12.73;;;;;;;;;;4953980;28;20295;-69
2023/04/08 02:12:06;;;;;;;219.23;18.73;;;;;;;;;;4969956;28;20221;-67
2023/04/08 02:14:31;;;;;;;111.45;14.88;;;;;;;;;;4963400;28;20229;-69
2023/04/08 02:17:08;;;;;;;16.93;11.83;;;;;;;;;;4942770;28;20699;-69
2023/04/08 02:19:35;;;;;;;12.15;10.30;;;;;;;;;;4933681;28;20210;-69
2023/04/08 02:22:04;;;;;;;14.33;11.40;;;;;;;;;;4960624;28;20229;-63
2023/04/08 02:24:30;;;;;;;14.73;11.80;;;;;;;;;;4945105;28;20670;-68
2023/04/08 02:26:55;;;;;;;14.57;11.87;;;;;;;;;;4924562;28;20214;-69
2023/04/08 02:29:20;;;;;;;14.00;11.47;;;;;;;;;;4936928;28;20218;-69
2023/04/08 02:31:46;;;;;;;14.98;12.88;;;;;;;;;;4934484;28;20230;-69
2023/04/08 02:34:11;;;;;;;15.10;13.50;;;;;;;;;;4916994;28;20234;-69
2023/04/08 02:36:37;;;;;;;22.10;15.40;;;;;;;;;;4923015;28;20211;-69
2023/04/08 02:39:03;;;;;;;17.67;14.63;;;;;;;;;;4941688;28;20302;-68
2023/04/08 02:41:29;;;;;;;17.40;14.88;;;;;;;;;;4960173;28;20336;-69
2023/04/08 02:43:54;;;;;;;18.73;14.30;;;;;;;;;;4964670;28;20238;-69
2023/04/08 02:46:20;;;;;;;22.93;17.63;;;;;;;;;;4964163;28;21921;-69
2023/04/08 02:48:45;;;;;;;22.08;16.42;;;;;;;;;;4929522;28;20265;-69
2023/04/08 02:51:10;;;;;;;18.50;15.57;;;;;;;;;;4960707;28;20996;-69
2023/04/08 02:53:35;;;;;;;20.08;14.70;;;;;;;;;;4957350;28;20222;-69
2023/04/08 02:56:01;;;;;;;21.93;16.23;;;;;;;;;;4956044;28;20911;-69
2023/04/08 02:58:26;;;;;;;22.67;16.00;;;;;;;;;;4960373;28;20210;-70
2023/04/08 03:00:51;;;;;;;18.07;15.40;;;;;;;;;;4964032;28;20650;-69
2023/04/08 03:03:16;;;;;;;17.83;14.50;;;;;;;;;;4963704;28;20216;-69
2023/04/08 03:05:42;;;;;;;19.08;15.00;;;;;;;;;;4964544;28;20634;-69
2023/04/08 03:08:07;;;;;;;16.33;14.27;;;;;;;;;;4963312;28;20224;-69
2023/04/08 03:10:32;;;;;;;18.00;13.97;;;;;;;;;;4964018;28;20500;-69
2023/04/08 03:12:57;;;;;;;20.37;15.67;;;;;;;;;;4963567;28;20229;-69
2023/04/08 03:15:23;;;;;;;19.13;15.67;;;;;;;;;;4962316;28;20202;-69
2023/04/08 03:17:48;;;;;;;19.00;15.57;;;;;;;;;;4970994;28;20685;-69
2023/04/08 03:20:13;;;;;;;21.07;16.20;;;;;;;;;;4945229;28;20222;-69
2023/04/08 03:22:39;;;;;;;19.13;16.00;;;;;;;;;;4936665;28;20214;-69
2023/04/08 03:25:04;;;;;;;18.53;15.93;;;;;;;;;;4942270;28;20217;-69
2023/04/08 03:27:30;;;;;;;17.88;15.20;;;;;;;;;;4944928;28;20675;-69
2023/04/08 03:29:56;;;;;;;19.07;15.90;;;;;;;;;;4944559;28;20210;-70
2023/04/08 03:32:22;;;;;;;18.97;16.10;;;;;;;;;;4943910;28;20583;-69
2023/04/08 03:34:49;;;;;;;18.80;15.68;;;;;;;;;;4944765;28;20229;-69
2023/04/08 03:37:15;;;;;;;18.60;15.37;;;;;;;;;;4944139;28;20686;-69
2023/04/08 03:39:40;;;;;;;19.70;15.00;;;;;;;;;;4941926;28;20245;-70
2023/04/08 03:42:05;;;;;;;19.40;14.87;;;;;;;;;;4937526;28;20230;-68
2023/04/08 03:44:31;;;;;;;17.58;14.68;;;;;;;;;;4936665;28;20215;-70
2023/04/08 03:46:56;;;;;;;18.05;14.52;;;;;;;;;;4940055;28;20569;-69
2023/04/08 03:49:21;;;;;;;16.80;13.97;;;;;;;;;;4944281;28;20214;-69
2023/04/08 03:51:46;;;;;;;20.20;15.77;;;;;;;;;;4944019;28;20285;-70
2023/04/08 03:54:12;;;;;;;18.77;14.53;;;;;;;;;;4943869;28;20226;-69
2023/04/08 03:56:37;;;;;;;17.87;14.77;;;;;;;;;;4944285;28;20226;-70
2023/04/08 03:59:02;;;;;;;17.40;14.73;;;;;;;;;;4943088;28;20265;-69
2023/04/08 04:01:29;;;;;;;18.80;15.80;;;;;;;;;;4944394;28;20560;-69
2023/04/08 04:03:54;;;;;;;18.90;15.87;;;;;;;;;;4920541;28;20226;-69
2023/04/08 04:06:19;;;;;;;16.70;13.90;;;;;;;;;;4935883;28;20258;-69
2023/04/08 04:08:45;;;;;;;18.13;14.20;;;;;;;;;;4937467;28;20215;-70
2023/04/08 04:11:10;;;;;;;17.00;14.20;;;;;;;;;;4942674;28;20227;-69
2023/04/08 04:13:35;;;;;;;17.37;14.70;;;;;;;;;;4944290;28;20217;-69
2023/04/08 04:16:01;;;;;;;18.60;13.80;;;;;;;;;;4943728;28;20313;-69
2023/04/08 04:18:26;;;;;;;18.90;15.07;;;;;;;;;;4943655;28;20221;-70
2023/04/08 04:20:51;;;;;;;17.80;13.53;;;;;;;;;;4962595;28;20228;-69
2023/04/08 04:23:16;;;;;;;19.87;15.43;;;;;;;;;;4955375;28;20674;-69
2023/04/08 04:25:43;;;;;;;18.42;15.20;;;;;;;;;;4938618;28;20207;-69
2023/04/08 04:28:08;;;;;;;20.77;16.13;;;;;;;;;;4935967;28;20227;-69
2023/04/08 04:30:37;;;;;;;16.87;13.80;;;;;;;;;;4936988;28;20841;-69
2023/04/08 04:33:03;;;;;;;17.27;14.33;;;;;;;;;;4943258;28;20241;-69
2023/04/08 04:35:28;;;;;;;20.37;15.17;;;;;;;;;;4958367;28;21090;-70
2023/04/08 04:37:53;;;;;;;17.87;14.00;;;;;;;;;;4944408;28;20213;-70
2023/04/08 04:40:19;;;;;;;16.43;12.63;;;;;;;;;;4942410;28;20214;-70
2023/04/08 04:42:44;;;;;;;18.77;13.83;;;;;;;;;;4943737;28;20694;-69
2023/04/08 04:45:09;;;;;;;17.43;13.90;;;;;;;;;;4943004;28;20281;-69
2023/04/08 04:47:35;;;;;;;21.43;14.57;;;;;;;;;;4940385;28;20938;-70
2023/04/08 04:50:00;;;;;;;18.03;13.10;;;;;;;;;;4936342;28;20225;-70
2023/04/08 04:52:25;;;;;;;18.00;14.13;;;;;;;;;;4939484;28;20301;-69
2023/04/08 04:54:51;;;;;;;17.53;13.83;;;;;;;;;;4938178;28;21324;-69
2023/04/08 04:57:16;;;;;;;19.70;14.93;;;;;;;;;;4943107;28;20619;-69
2023/04/08 04:59:41;;;;;;;16.20;13.30;;;;;;;;;;4943287;28;20226;-70
2023/04/08 05:02:06;;;;;;;15.47;12.67;;;;;;;;;;4942668;28;20257;-70
2023/04/08 05:04:32;;;;;;;17.73;13.83;;;;;;;;;;4942689;28;20210;-68
2023/04/08 05:06:58;;;;;;;21.20;15.13;;;;;;;;;;4943332;28;20261;-69
2023/04/08 05:09:23;;;;;;;20.47;14.43;;;;;;;;;;4960372;28;20229;-68
2023/04/08 05:11:49;;;;;;;15.18;12.65;;;;;;;;;;4954721;28;20334;-69
2023/04/08 05:14:14;;;;;;;18.95;14.13;;;;;;;;;;4954307;28;20260;-68
2023/04/08 05:16:40;;;;;;;17.97;13.47;;;;;;;;;;4954489;28;20351;-69
2023/04/08 05:19:05;;;;;;;19.27;14.30;;;;;;;;;;4961559;28;20320;-67
2023/04/08 05:21:31;;;;;;;18.30;13.70;;;;;;;;;;4961093;28;20221;-68
2023/04/08 05:23:56;;;;;;;18.87;13.70;;;;;;;;;;4967290;28;20210;-67
2023/04/08 05:26:22;;;;;;;18.47;13.00;;;;;;;;;;4969352;28;20288;-68
2023/04/08 05:28:47;;;;;;;15.47;13.13;;;;;;;;;;4970624;28;20425;-68
2023/04/08 05:31:16;;;;;;;14.85;11.73;;;;;;;;;;4956407;28;20301;-69
2023/04/08 05:33:41;;;;;;;17.05;11.75;;;;;;;;;;4952342;28;20222;-69
2023/04/08 05:36:06;;;;;;;14.17;10.57;;;;;;;;;;4960398;28;20230;-67
2023/04/08 05:38:32;;;;;;;14.73;9.90;;;;;;;;;;4960592;28;20562;-68
2023/04/08 05:40:57;;;;;;;13.97;10.23;;;;;;;;;;4945104;28;20229;-69
2023/04/08 05:43:22;;;;;;;10.98;9.50;;;;;;;;;;4959479;28;20222;-69
2023/04/08 05:45:48;;;;;;;12.27;9.73;;;;;;;;;;4961161;28;20201;-69
2023/04/08 05:48:13;;;;;;;13.70;9.57;;;;;;;;;;4959432;28;20212;-69
2023/04/08 05:50:38;;;;;;;10.63;8.85;;;;;;;;;;4959924;28;20203;-71
2023/04/08 05:53:03;;;;;;;9.80;8.20;;;;;;;;;;4944248;28;20241;-71
2023/04/08 05:55:29;;;;;;;10.15;8.15;;;;;;;;;;4961615;28;20569;-69
2023/04/08 05:57:54;;;;;;;10.40;8.38;;;;;;;;;;4959671;28;20246;-69
2023/04/08 06:00:20;;;;;;;10.65;8.45;;;;;;;;;;4961726;28;20205;-69
2023/04/08 06:02:45;;;;;;;12.38;7.65;;;;;;;;;;4960986;28;20612;-69
2023/04/08 06:05:10;;;;;;;10.98;7.60;;;;;;;;;;4959512;28;20210;-69
2023/04/08 06:07:36;;;;;;;8.98;7.70;;;;;;;;;;4962264;28;20217;-69
2023/04/08 06:10:01;;;;;;;8.98;6.93;;;;;;;;;;4960060;28;20207;-68
2023/04/08 06:12:26;;;;;;;8.95;7.18;;;;;;;;;;4959593;28;20231;-70
2023/04/08 06:14:54;;;;;;;12.02;7.53;;;;;;;;;;4957941;28;20610;-68
2023/04/08 06:17:20;;;;;;;9.00;7.03;;;;;;;;;;4953355;28;20277;-69
2023/04/08 06:19:45;;;;;;;8.40;6.55;;;;;;;;;;4955211;29;20226;-71
2023/04/08 06:22:10;;;;;;;9.75;7.13;;;;;;;;;;4955277;29;20643;-68
2023/04/08 06:24:36;;;;;;;8.07;6.50;;;;;;;;;;4957787;28;20226;-69
2023/04/08 06:27:01;;;;;;;8.25;6.43;;;;;;;;;;4954412;29;20206;-68
2023/04/08 06:29:28;;;;;;;7.85;6.07;;;;;;;;;;4970607;28;20725;-70
2023/04/08 06:31:54;;;;;;;8.80;6.65;;;;;;;;;;4954938;28;20752;-66
2023/04/08 06:34:19;;;;;;;8.13;6.10;;;;;;;;;;4957922;28;20225;-69
2023/04/08 06:36:44;;;;;;;7.07;5.80;;;;;;;;;;4955520;29;20270;-71
2023/04/08 06:39:09;;;;;;;7.90;6.28;;;;;;;;;;4954344;29;20210;-70
2023/04/08 06:41:35;;;;;;;7.47;6.10;;;;;;;;;;4955225;29;20219;-69
2023/04/08 06:44:00;;;;;;;7.65;6.15;;;;;;;;;;4955067;29;20224;-68
2023/04/08 06:46:26;;;;;;;7.53;5.70;;;;;;;;;;4954550;29;20214;-69
2023/04/08 06:48:51;;;;;;;8.82;5.97;;;;;;;;;;4959588;28;20206;-70
2023/04/08 06:51:16;;;;;;;7.07;6.03;;;;;;;;;;4974100;28;20288;-68
2023/04/08 06:53:41;;;;;;;6.97;5.78;;;;;;;;;;4973892;28;20585;-70
2023/04/08 06:56:07;;;;;;;8.18;6.35;;;;;;;;;;4974021;28;20268;-70
2023/04/08 06:58:32;;;;;;;10.65;6.50;;;;;;;;;;4974583;28;20214;-71
2023/04/08 07:00:58;;;;;;;8.85;6.25;;;;;;;;;;4973553;28;20300;-71
2023/04/08 07:03:23;;;;;;;9.02;5.72;;;;;;;;;;4956574;28;20214;-70
2023/04/08 07:05:48;;;;;;;9.48;6.47;;;;;;;;;;4974075;28;20352;-70
2023/04/08 07:08:13;;;;;;;8.25;6.20;;;;;;;;;;4973225;28;20214;-70
2023/04/08 07:10:39;;;;;;;7.13;6.05;;;;;;;;;;4974302;28;20205;-70
2023/04/08 07:13:04;;;;;;;8.95;6.93;;;;;;;;;;4973732;28;20581;-70
2023/04/08 07:15:29;;;;;;;9.55;6.55;;;;;;;;;;4973430;28;20673;-70
2023/04/08 07:17:56;;;;;;;9.30;6.53;;;;;;;;;;4973836;28;20264;-70
2023/04/08 07:20:22;;;;;;;9.52;6.55;;;;;;;;;;4973696;28;20285;-70
2023/04/08 07:22:47;;;;;;;8.38;6.07;;;;;;;;;;4966086;28;20305;-70
2023/04/08 07:25:12;;;;;;;8.25;6.65;;;;;;;;;;4964520;28;20565;-69
2023/04/08 07:27:37;;;;;;;10.23;6.72;;;;;;;;;;4971060;28;20269;-75
2023/04/08 07:30:03;;;;;;;9.35;6.63;;;;;;;;;;4967353;28;20253;-68
2023/04/08 07:32:28;;;;;;;8.63;6.03;;;;;;;;;;4954318;29;20319;-70
2023/04/08 07:34:54;;;;;;;8.98;6.68;;;;;;;;;;4957366;28;20304;-67
2023/04/08 07:37:19;;;;;;;8.23;6.30;;;;;;;;;;4961145;28;20238;-67
2023/04/08 07:39:45;;;;;;;8.70;6.95;;;;;;;;;;4964842;28;20202;-67
2023/04/08 07:42:10;;;;;;;9.95;6.57;;;;;;;;;;4962397;28;20218;-67
2023/04/08 07:44:37;;;;;;;10.15;6.70;;;;;;;;;;4973477;28;20310;-67
2023/04/08 07:47:02;;;;;;;9.85;7.05;;;;;;;;;;4969348;28;20241;-66
2023/04/08 07:49:27;;;;;;;9.23;6.82;;;;;;;;;;4953733;29;20675;-67
2023/04/08 07:51:52;;;;;;;10.73;8.43;;;;;;;;;;4954121;29;20226;-67
2023/04/08 07:54:18;;;;;;;9.57;7.68;;;;;;;;;;4953640;29;20273;-66
2023/04/08 07:56:43;;;;;;;9.68;7.22;;;;;;;;;;4953383;29;20229;-66
2023/04/08 07:59:09;;;;;;;8.82;7.15;;;;;;;;;;4953755;29;20218;-66
2023/04/08 08:01:35;;;;;;;8.43;6.70;;;;;;;;;;4953971;29;20294;-66
2023/04/08 08:04:00;;;;;;;10.05;7.50;;;;;;;;;;4952167;29;20749;-64
2023/04/08 08:06:26;;;;;;;14.52;9.65;;;;;;;;;;4954004;29;20221;-66
2023/04/08 08:08:51;;;;;;;8.95;7.15;;;;;;;;;;4953775;29;20222;-66
2023/04/08 08:11:17;;;;;;;9.85;7.20;;;;;;;;;;4952527;29;20289;-66
2023/04/08 08:13:42;;;;;;;9.88;7.40;;;;;;;;;;4953828;29;20234;-66
2023/04/08 08:16:10;;;;;;;9.75;7.20;;;;;;;;;;4953383;29;20277;-66
2023/04/08 08:18:35;;;;;;;9.85;7.60;;;;;;;;;;4935665;29;20620;-66
2023/04/08 08:21:01;;;;;;;10.73;8.40;;;;;;;;;;4953367;29;20679;-65
2023/04/08 08:23:26;;;;;;;12.13;8.80;;;;;;;;;;4936544;29;20223;-66
2023/04/08 08:26:08;;;;;;;11.23;8.40;;;;;;;;;;4952778;29;20745;-66
2023/04/08 08:28:34;;;;;;;9.15;7.30;;;;;;;;;;4954872;28;20225;-66
2023/04/08 08:30:59;;;;;;;9.02;7.00;;;;;;;;;;4954542;28;20434;-65
2023/04/08 08:33:24;;;;;;;9.32;6.97;;;;;;;;;;4960393;28;20233;-67
2023/04/08 08:35:50;;;;;;;10.27;7.00;;;;;;;;;;4959227;28;20236;-68
2023/04/08 08:38:16;;;;;;;8.88;7.65;;;;;;;;;;4952833;29;20210;-68
2023/04/08 08:40:41;;;;;;;9.85;6.75;;;;;;;;;;4951659;28;20733;-68
2023/04/08 08:43:07;;;;;;;9.10;7.25;;;;;;;;;;4952816;29;20226;-67
2023/04/08 08:45:33;;;;;;;10.07;7.70;;;;;;;;;;4935418;29;20670;-67
2023/04/08 08:47:58;;;;;;;11.38;7.80;;;;;;;;;;4952966;28;20694;-67
2023/04/08 08:50:23;;;;;;;9.60;7.22;;;;;;;;;;4969350;28;20578;-67
2023/04/08 08:52:49;;;;;;;8.95;7.15;;;;;;;;;;4971803;28;20234;-67
2023/04/08 08:55:15;;;;;;;8.68;6.63;;;;;;;;;;4971754;28;20225;-67
2023/04/08 08:57:40;;;;;;;9.70;7.38;;;;;;;;;;4972319;28;20306;-68
2023/04/08 09:00:07;;;;;;;10.35;8.00;;;;;;;;;;4953758;28;20288;-67
2023/04/08 09:02:33;;;;;;;9.32;7.25;;;;;;;;;;4954863;28;20692;-67
2023/04/08 09:04:58;;;;;;;9.90;7.70;;;;;;;;;;4972102;28;20221;-67
2023/04/08 09:07:25;;;;;;;9.52;7.10;;;;;;;;;;4971056;28;20218;-67
2023/04/08 09:09:50;;;;;;;10.70;7.10;;;;;;;;;;4972117;28;20544;-67
2023/04/08 09:12:16;;;;;;;9.90;7.05;;;;;;;;;;4971460;28;20249;-67
2023/04/08 09:14:41;;;;;;;7.57;6.47;;;;;;;;;;4953929;28;20621;-67
2023/04/08 09:17:06;;;;;;;9.32;7.10;;;;;;;;;;4971347;28;20553;-66
2023/04/08 09:19:32;;;;;;;8.20;7.13;;;;;;;;;;4971871;28;20375;-67
2023/04/08 09:22:04;;;;;;;10.15;7.07;;;;;;;;;;4971184;28;20737;-67
2023/04/08 09:24:30;;;;;;;8.23;7.00;;;;;;;;;;4971718;28;20210;-67
2023/04/08 09:26:56;;;;;;;8.98;6.88;;;;;;;;;;4971771;28;20264;-67
2023/04/08 09:29:22;;;;;;;8.82;7.30;;;;;;;;;;4970533;28;20213;-67
2023/04/08 09:31:47;;;;;;;10.63;7.35;;;;;;;;;;4952500;28;20226;-67
2023/04/08 09:34:15;;;;;;;8.85;7.35;;;;;;;;;;4934082;28;20218;-66
2023/04/08 09:36:40;;;;;;;10.15;7.28;;;;;;;;;;4934979;29;20297;-66
2023/04/08 09:39:06;;;;;;;9.98;7.95;;;;;;;;;;4951797;29;20310;-66
2023/04/08 09:41:33;;;;;;;10.68;7.95;;;;;;;;;;4952161;29;20217;-66
2023/04/08 09:43:59;;;;;;;11.88;7.65;;;;;;;;;;4951615;29;20635;-66
2023/04/08 09:46:37;;;;;;;9.20;7.43;;;;;;;;;;4934657;29;20670;-66
2023/04/08 09:49:05;;;;;;;10.50;8.27;;;;;;;;;;4939854;28;20213;-66
2023/04/08 09:51:33;;;;;;;10.35;8.15;;;;;;;;;;4953962;28;20221;-66
2023/04/08 09:53:59;;;;;;;11.13;8.27;;;;;;;;;;4971544;28;20592;-66
2023/04/08 09:56:25;;;;;;;11.30;8.13;;;;;;;;;;4970074;28;20205;-66
2023/04/08 09:58:51;;;;;;;10.77;8.48;;;;;;;;;;4954361;28;20217;-66
2023/04/08 10:01:16;;;;;;;10.95;8.38;;;;;;;;;;4970818;28;20206;-66
2023/04/08 10:03:47;;;;;;;10.27;8.20;;;;;;;;;;4953293;28;20692;-67
2023/04/08 10:06:12;;;;;;;10.52;8.07;;;;;;;;;;4970714;28;20713;-66
2023/04/08 10:08:37;;;;;;;10.35;7.72;;;;;;;;;;4971385;28;20216;-66
2023/04/08 10:11:03;;;;;;;10.13;7.72;;;;;;;;;;4970138;28;20291;-67
2023/04/08 10:13:28;;;;;;;10.93;7.55;;;;;;;;;;4971559;28;20256;-66
2023/04/08 10:16:16;;;;;;;11.80;8.18;;;;;;;;;;4953928;28;20682;-66
2023/04/08 10:18:43;;;;;;;11.23;7.60;;;;;;;;;;4970115;28;20682;-66
2023/04/08 10:21:27;;;;;;;10.43;7.07;;;;;;;;;;4970586;28;20572;-66
2023/04/08 10:23:53;;;;;;;11.60;7.13;;;;;;;;;;4970459;28;20577;-67
2023/04/08 10:26:35;;;;;;;9.60;7.38;;;;;;;;;;4970809;28;20209;-66
2023/04/08 10:29:16;;;;;;;10.85;7.53;;;;;;;;;;4970771;28;20588;-64
2023/04/08 10:31:42;;;;;;;10.73;8.60;;;;;;;;;;4952017;28;20845;-66
2023/04/08 10:34:16;;;;;;;10.65;7.50;;;;;;;;;;4933921;28;20297;-66
2023/04/08 10:36:43;;;;;;;12.15;8.45;;;;;;;;;;4951772;29;20760;-67
2023/04/08 10:39:08;;;;;;;9.50;7.82;;;;;;;;;;4950739;29;20232;-66
2023/04/08 10:41:33;;;;;;;10.38;7.93;;;;;;;;;;4951842;29;20313;-66
2023/04/08 10:43:58;;;;;;;9.35;8.05;;;;;;;;;;4951935;29;20611;-66
2023/04/08 10:46:26;;;;;;;9.77;7.90;;;;;;;;;;4933320;29;20218;-66
2023/04/08 10:49:00;;;;;;;9.50;7.70;;;;;;;;;;4965200;28;20636;-66
2023/04/08 10:51:26;;;;;;;9.50;7.35;;;;;;;;;;4950999;28;20286;-66
2023/04/08 10:53:51;;;;;;;9.57;7.38;;;;;;;;;;4933776;29;20223;-66
2023/04/08 10:56:17;;;;;;;10.95;7.68;;;;;;;;;;4951429;29;20210;-66
2023/04/08 10:58:53;;;;;;;10.57;7.85;;;;;;;;;;4951609;29;20234;-66
2023/04/08 11:01:18;;;;;;;10.18;7.60;;;;;;;;;;4933728;29;20230;-66
2023/04/08 11:03:43;;;;;;;10.07;7.53;;;;;;;;;;4953830;28;20222;-66
2023/04/08 11:06:09;;;;;;;9.75;7.38;;;;;;;;;;4953351;29;20872;-66
2023/04/08 11:08:35;;;;;;;10.07;6.50;;;;;;;;;;4960291;28;20704;-68
2023/04/08 11:11:00;;;;;;;9.82;6.00;;;;;;;;;;4955051;28;20210;-64
2023/04/08 11:13:26;;;;;;;9.57;6.38;;;;;;;;;;4940066;29;20630;-66
2023/04/08 11:15:51;;;;;;;10.93;6.35;;;;;;;;;;4954366;29;20222;-66
2023/04/08 11:18:17;;;;;;;9.10;6.22;;;;;;;;;;4953879;29;20227;-66
2023/04/08 11:20:43;;;;;;;9.18;5.95;;;;;;;;;;4953974;29;20218;-66
2023/04/08 11:23:16;;;;;;;8.02;6.30;;;;;;;;;;4953932;29;20214;-66
2023/04/08 11:25:41;;;;;;;8.75;6.35;;;;;;;;;;4954421;29;20694;-67
2023/04/08 11:28:07;;;;;;;8.32;5.70;;;;;;;;;;4953176;29;20260;-66
2023/04/08 11:30:33;;;;;;;9.55;6.40;;;;;;;;;;4946298;28;20292;-66
2023/04/08 11:32:58;;;;;;;10.88;6.97;;;;;;;;;;4973199;28;20225;-66
2023/04/08 11:35:23;;;;;;;9.23;7.00;;;;;;;;;;4968916;28;20264;-66
2023/04/08 11:37:51;;;;;;;8.30;6.70;;;;;;;;;;4956054;28;20218;-66
2023/04/08 11:40:18;;;;;;;8.48;6.70;;;;;;;;;;4955721;28;20209;-66
2023/04/08 11:42:44;;;;;;;10.55;7.18;;;;;;;;;;4972755;28;20232;-66
2023/04/08 11:45:11;;;;;;;8.68;6.50;;;;;;;;;;4973029;28;20729;-66
2023/04/08 11:47:36;;;;;;;10.23;6.97;;;;;;;;;;4965614;28;20214;-66
2023/04/08 11:50:01;;;;;;;8.93;6.72;;;;;;;;;;4966511;28;20213;-65
2023/04/08 11:52:40;;;;;;;8.15;6.63;;;;;;;;;;4973019;28;20627;-66
2023/04/08 11:55:05;;;;;;;7.97;6.53;;;;;;;;;;4972447;28;20213;-66
2023/04/08 11:57:31;;;;;;;9.18;6.80;;;;;;;;;;4972558;28;20220;-66
2023/04/08 11:59:57;;;;;;;9.13;6.97;;;;;;;;;;4973182;28;20210;-66
2023/04/08 12:02:22;;;;;;;8.07;6.85;;;;;;;;;;4971954;28;20277;-66
2023/04/08 12:04:48;;;;;;;10.63;7.30;;;;;;;;;;4972952;28;20224;-66
2023/04/08 12:07:13;;;;;;;10.27;7.32;;;;;;;;;;4972300;28;20233;-66
2023/04/08 12:09:38;;;;;;;10.88;6.80;;;;;;;;;;4972414;28;20555;-66
2023/04/08 12:12:03;;;;;;;11.25;7.35;;;;;;;;;;4972355;28;20226;-66
2023/04/08 12:14:29;;;;;;;9.77;7.40;;;;;;;;;;4973094;28;20329;-66
2023/04/08 12:16:54;;;;;;;9.95;7.47;;;;;;;;;;4972354;28;20260;-66
2023/04/08 12:19:19;;;;;;;9.85;7.57;;;;;;;;;;4972569;28;20315;-66
2023/04/08 12:21:44;;;;;;;10.60;8.00;;;;;;;;;;4972856;28;20261;-66
2023/04/08 12:24:10;;;;;;;9.73;7.22;;;;;;;;;;4971221;28;20292;-66
2023/04/08 12:26:35;;;;;;;10.70;7.90;;;;;;;;;;4972825;28;20210;-66
2023/04/08 12:29:00;;;;;;;10.40;7.68;;;;;;;;;;4972186;28;20584;-63
2023/04/08 12:31:27;;;;;;;10.60;7.35;;;;;;;;;;4960537;28;20237;-66
2023/04/08 12:33:52;;;;;;;11.85;8.52;;;;;;;;;;4954767;28;20214;-66
2023/04/08 12:36:18;;;;;;;9.95;8.13;;;;;;;;;;4955894;28;20721;-66
2023/04/08 12:38:43;;;;;;;11.52;8.43;;;;;;;;;;4958697;28;20217;-66
2023/04/08 12:41:08;;;;;;;9.30;7.70;;;;;;;;;;4963314;28;20308;-65
2023/04/08 12:43:33;;;;;;;9.85;7.80;;;;;;;;;;4966713;28;20232;-66
2023/04/08 12:46:00;;;;;;;11.32;8.18;;;;;;;;;;4965451;28;20241;-66
2023/04/08 12:48:26;;;;;;;13.98;8.52;;;;;;;;;;4952206;28;20218;-66
2023/04/08 12:50:52;;;;;;;9.77;8.43;;;;;;;;;;4956713;28;20221;-66
2023/04/08 12:53:17;;;;;;;9.75;7.93;;;;;;;;;;4945977;28;20227;-66
2023/04/08 12:55:43;;;;;;;10.57;7.82;;;;;;;;;;4945602;28;20581;-67
2023/04/08 12:58:08;;;;;;;8.80;7.20;;;;;;;;;;4939762;28;20210;-67
2023/04/08 13:00:36;;;;;;;10.55;7.85;;;;;;;;;;4940518;28;20225;-67
2023/04/08 13:03:01;;;;;;;10.50;8.18;;;;;;;;;;4943531;28;20217;-66
2023/04/08 13:05:27;;;;;;;11.73;8.10;;;;;;;;;;4947559;28;20214;-67
2023/04/08 13:07:52;;;;;;;12.20;8.27;;;;;;;;;;4958346;28;20232;-67
2023/04/08 13:10:17;;;;;;;11.73;8.20;;;;;;;;;;4962300;28;20210;-67
2023/04/08 13:12:43;;;;;;;11.75;9.13;;;;;;;;;;4946941;28;20222;-67
2023/04/08 13:15:08;;;;;;;11.20;8.13;;;;;;;;;;4947203;28;20218;-67
2023/04/08 13:17:34;;;;;;;11.85;8.27;;;;;;;;;;4962802;28;20222;-67
2023/04/08 13:20:00;;;;;;;12.38;9.30;;;;;;;;;;4957485;28;20221;-67
2023/04/08 13:22:25;;;;;;;11.98;9.02;;;;;;;;;;4958262;28;20288;-67
2023/04/08 13:24:50;;;;;;;14.13;11.82;;;;;;;;;;4954287;28;21114;-67
2023/04/08 13:27:16;;;;;;;14.05;11.50;;;;;;;;;;4945322;28;20215;-68
2023/04/08 13:29:41;;;;;;;14.45;11.40;;;;;;;;;;4947398;28;20222;-70
2023/04/08 13:32:06;;;;;;;14.10;10.45;;;;;;;;;;4949812;28;20776;-69
2023/04/08 13:34:32;;;;;;;12.25;10.13;;;;;;;;;;4946777;28;20218;-70
2023/04/08 13:36:57;;;;;;;15.25;11.90;;;;;;;;;;4957095;28;21124;-70
2023/04/08 13:39:22;;;;;;;15.50;12.40;;;;;;;;;;4964852;28;20209;-70
2023/04/08 13:41:47;;;;;;;14.75;12.38;;;;;;;;;;4958815;28;20214;-70
2023/04/08 13:44:14;;;;;;;18.05;13.77;;;;;;;;;;4945940;28;20865;-70
2023/04/08 13:46:39;;;;;;;15.80;13.40;;;;;;;;;;4941167;28;20241;-70
2023/04/08 13:49:05;;;;;;;16.58;13.07;;;;;;;;;;4943865;28;20677;-70
2023/04/08 13:51:30;;;;;;;18.20;14.13;;;;;;;;;;4947012;28;20229;-69
2023/04/08 13:53:56;;;;;;;17.70;14.25;;;;;;;;;;4946782;28;20214;-70
2023/04/08 13:56:21;;;;;;;17.30;14.30;;;;;;;;;;4945947;28;20214;-69
2023/04/08 13:58:46;;;;;;;19.60;14.55;;;;;;;;;;4947170;28;20210;-70
2023/04/08 14:01:11;;;;;;;18.27;15.43;;;;;;;;;;4946431;28;20864;-69
2023/04/08 14:03:37;;;;;;;16.60;14.23;;;;;;;;;;4946520;28;20210;-69
2023/04/08 14:06:02;;;;;;;17.20;14.45;;;;;;;;;;4957703;28;20273;-68
2023/04/08 14:08:27;;;;;;;18.88;15.13;;;;;;;;;;4958057;28;20221;-69
2023/04/08 14:10:54;;;;;;;20.02;15.82;;;;;;;;;;4959298;28;20213;-69
2023/04/08 14:13:20;;;;;;;19.88;16.20;;;;;;;;;;4946426;28;20329;-69
2023/04/08 14:15:45;;;;;;;18.83;14.77;;;;;;;;;;4946765;28;20301;-70
2023/04/08 14:18:12;;;;;;;19.88;16.20;;;;;;;;;;4945782;28;20210;-69
2023/04/08 14:20:37;;;;;;;19.40;15.32;;;;;;;;;;4946595;28;20246;-69